Arctic Taglu — CY8968 — position and weather

sailwx.info

Track history (hours):
 
Tides and Currents Weather Stations Pressure Air Temp Water Temp Dewpoint Dewpoint Depression Visibility Wind Speed Wind Dir Waves Ship Positions

Arctic Taglu

Last reported at 2014-Oct-22 21:33 UTC. Time now 2014-Oct-22 21:53 UTC.
Position N 49°09' W 123°02'.

Length 33 m; draft 6 m.

Type: Tug. MMSI: 316003483.

Date/timePositionNaut miles runAvg speedWind from/ knotsBaromVisibWave heightAir tempDewpointWater temp
2014-Oct-22 21:33N 49°09' W 123°02'0 0.0
2014-Oct-22 20:33N 49°09' W 123°02'0 0.0
2014-Oct-22 19:33N 49°09' W 123°02'0 0.0
2014-Oct-22 18:33N 49°09' W 123°02'0 0.0
2014-Oct-22 17:33N 49°09' W 123°02'0 0.0
2014-Oct-22 16:33N 49°09' W 123°02'0 0.0
2014-Oct-22 15:33N 49°09' W 123°02'0 0.0
2014-Oct-22 14:33N 49°09' W 123°02'4 4.3
2014-Oct-22 13:33N 49°06' W 123°08'9 8.7
2014-Oct-22 12:33N 49°07' W 123°21'9 9.4
2014-Oct-22 11:33N 49°10' W 123°35'8 8.1
2014-Oct-22 10:33N 49°13' W 123°46'7 6.8
2014-Oct-22 09:33N 49°10' W 123°56'0 0.0
2014-Oct-22 08:33N 49°10' W 123°56'4 3.6
2014-Oct-22 07:33N 49°13' W 123°52'9 9.1
2014-Oct-22 06:33N 49°11' W 123°38'10 9.8
2014-Oct-22 05:33N 49°07' W 123°25'1211.7
2014-Oct-22 04:33N 49°07' W 123°07'4 3.6
2014-Oct-22 03:33N 49°09' W 123°02'0 0.0
2014-Oct-22 02:33N 49°09' W 123°02'0 0.1
2014-Oct-22 01:33N 49°09' W 123°02'0 0.0
2014-Oct-22 00:33N 49°09' W 123°02'0 0.0
2014-Oct-21 23:33N 49°09' W 123°02'0 0.0
2014-Oct-21 22:33N 49°09' W 123°02'0 0.0
2014-Oct-21 21:33N 49°09' W 123°02'0 0.0
2014-Oct-21 20:33N 49°09' W 123°02'0 0.0
2014-Oct-21 19:33N 49°09' W 123°02'0 0.0
2014-Oct-21 18:33N 49°09' W 123°02'0 0.0
2014-Oct-21 17:33N 49°09' W 123°02'0 0.0
2014-Oct-21 16:33N 49°09' W 123°02'0 0.0
2014-Oct-21 15:33N 49°09' W 123°02'0 0.0
2014-Oct-21 14:33N 49°09' W 123°02'4 4.3
2014-Oct-21 13:33N 49°07' W 123°08'8 8.5
2014-Oct-21 12:33N 49°06' W 123°21'10 9.8
2014-Oct-21 11:33N 49°10' W 123°35'10 9.8
2014-Oct-21 10:33N 49°13' W 123°49'5 5.3
2014-Oct-21 09:33N 49°10' W 123°56'0 0.0
2014-Oct-21 08:33N 49°10' W 123°56'3 3.1
2014-Oct-21 07:33N 49°12' W 123°53'10 9.8
2014-Oct-21 06:33N 49°10' W 123°38'10 9.9
2014-Oct-21 05:33N 49°06' W 123°24'1211.6
2014-Oct-21 04:33N 49°07' W 123°06'3 3.1
2014-Oct-21 03:33N 49°09' W 123°02'0 0.0
2014-Oct-21 02:33N 49°09' W 123°02'0 0.1
2014-Oct-21 01:31N 49°09' W 123°02'0 0.0
2014-Oct-21 00:31N 49°09' W 123°02'0 0.0
2014-Oct-20 23:31N 49°09' W 123°02'0 0.0
2014-Oct-20 22:31N 49°09' W 123°02'0 0.0
2014-Oct-20 21:31N 49°09' W 123°02'0 0.0
2014-Oct-20 20:31N 49°09' W 123°02'0 0.0
2014-Oct-20 19:31N 49°09' W 123°02'0 0.0
2014-Oct-20 18:31N 49°09' W 123°02'0 0.0
2014-Oct-20 17:31N 49°09' W 123°02'0 0.0
2014-Oct-20 16:31N 49°09' W 123°02'0 0.0
2014-Oct-20 15:31N 49°09' W 123°02'0 0.0
2014-Oct-20 14:31N 49°09' W 123°02'0 0.0
2014-Oct-20 13:31N 49°09' W 123°02'0 0.0
2014-Oct-20 12:31N 49°09' W 123°02'0 0.0
2014-Oct-20 11:31N 49°09' W 123°02'0 0.0
2014-Oct-20 10:31N 49°09' W 123°02'0 0.0
2014-Oct-20 09:31N 49°09' W 123°02'0 0.0
2014-Oct-20 08:31N 49°09' W 123°02'0 0.0
2014-Oct-20 07:31N 49°09' W 123°02'0 0.0
2014-Oct-20 06:31N 49°09' W 123°02'0 0.0
2014-Oct-20 05:31N 49°09' W 123°02'0 0.0
2014-Oct-20 04:31N 49°09' W 123°02'0 0.0
2014-Oct-20 03:31N 49°09' W 123°02'0 0.0
2014-Oct-20 02:31N 49°09' W 123°02'0 0.0
2014-Oct-20 01:31N 49°09' W 123°02'0 0.0
2014-Oct-20 00:31N 49°09' W 123°02'0 0.0
2014-Oct-19 23:28N 49°09' W 123°02'0 0.0
2014-Oct-19 22:31N 49°09' W 123°02'0 0.0
2014-Oct-19 21:31N 49°09' W 123°02'0 0.0
2014-Oct-19 20:31N 49°09' W 123°02'0 0.0
2014-Oct-19 19:31N 49°09' W 123°02'0 0.0
2014-Oct-19 18:31N 49°09' W 123°02'0 0.0
2014-Oct-19 17:31N 49°09' W 123°02'0 0.0
2014-Oct-19 16:31N 49°09' W 123°02'0 0.0
2014-Oct-19 15:31N 49°09' W 123°02'0 0.0
2014-Oct-19 14:31N 49°09' W 123°02'0 0.0
2014-Oct-19 13:31N 49°09' W 123°02'0 0.0
2014-Oct-19 12:31N 49°09' W 123°02'0 0.0
2014-Oct-19 11:31N 49°09' W 123°02'0 0.0
2014-Oct-19 10:28N 49°09' W 123°02'0 0.0
2014-Oct-19 09:31N 49°09' W 123°02'0 0.0
2014-Oct-19 08:31N 49°09' W 123°02'0 0.0
2014-Oct-19 07:31N 49°09' W 123°02'0 0.0
2014-Oct-19 06:31N 49°09' W 123°02'0 0.0
2014-Oct-19 05:31N 49°09' W 123°02'0 0.0
2014-Oct-19 04:31N 49°09' W 123°02'0 0.0
2014-Oct-19 03:31N 49°09' W 123°02'0 0.0
2014-Oct-19 02:31N 49°09' W 123°02'0 0.0
2014-Oct-19 01:31N 49°09' W 123°02'0 0.0
2014-Oct-19 00:31N 49°09' W 123°02'0 0.0
2014-Oct-18 23:31N 49°09' W 123°02'0 0.0
2014-Oct-18 22:31N 49°09' W 123°02'0 0.0
2014-Oct-18 21:31N 49°09' W 123°02'0 0.0
2014-Oct-18 20:31N 49°09' W 123°02'0 0.0
2014-Oct-18 19:31N 49°09' W 123°02'0 0.0
2014-Oct-18 18:31N 49°09' W 123°02'0 0.0
2014-Oct-18 17:31N 49°09' W 123°02'0 0.0
2014-Oct-18 16:31N 49°09' W 123°02'0 0.0
2014-Oct-18 15:31N 49°09' W 123°02'0 0.0
2014-Oct-18 14:33N 49°09' W 123°02'6 6.0
2014-Oct-18 13:34N 49°07' W 123°11'7 6.6
2014-Oct-18 12:33N 49°06' W 123°21'10 9.5
2014-Oct-18 11:33N 49°10' W 123°35'10 9.8
2014-Oct-18 10:34N 49°13' W 123°49'5 4.3
2014-Oct-18 09:18N 49°10' W 123°56'0 0.0
2014-Oct-18 08:32N 49°10' W 123°56'4 4.2
2014-Oct-18 07:32N 49°13' W 123°51'10 9.9
2014-Oct-18 06:34N 49°11' W 123°37'1110.5
2014-Oct-18 05:33N 49°07' W 123°22'1110.8
2014-Oct-18 04:33N 49°07' W 123°05'2 2.5
2014-Oct-18 03:34N 49°09' W 123°02'0 0.0
2014-Oct-18 02:32N 49°09' W 123°02'0 0.0
2014-Oct-18 01:32N 49°09' W 123°02'0 0.0
2014-Oct-18 00:30N 49°09' W 123°02'0 0.0
2014-Oct-17 23:33N 49°09' W 123°02'0 0.0
2014-Oct-17 22:32N 49°09' W 123°02'0 0.0
2014-Oct-17 21:32N 49°09' W 123°02'0 0.0
2014-Oct-17 20:32N 49°09' W 123°02'0 0.0
2014-Oct-17 19:33N 49°09' W 123°02'0 0.0
2014-Oct-17 18:32N 49°09' W 123°02'0 0.0
2014-Oct-17 17:32N 49°09' W 123°02'0 0.0
2014-Oct-17 16:32N 49°09' W 123°02'0 0.0
2014-Oct-17 15:33N 49°09' W 123°02'0 0.0
2014-Oct-17 14:33N 49°09' W 123°02'4 4.5
2014-Oct-17 13:33N 49°07' W 123°08'7 6.6
2014-Oct-17 12:33N 49°06' W 123°18'10 9.7
2014-Oct-17 11:33N 49°09' W 123°32'1010.1
2014-Oct-17 10:33N 49°13' W 123°47'6 6.3
2014-Oct-17 09:33N 49°10' W 123°56'0 0.0
2014-Oct-17 08:33N 49°10' W 123°56'5 5.3
2014-Oct-17 07:33N 49°13' W 123°49'10 9.7
2014-Oct-17 06:33N 49°10' W 123°35'1010.5
2014-Oct-17 05:33N 49°06' W 123°20'1110.6
2014-Oct-17 04:33N 49°07' W 123°04'2 1.8
2014-Oct-17 03:33N 49°09' W 123°02'0 0.0
2014-Oct-17 02:31N 49°09' W 123°02'0 0.0
2014-Oct-17 01:31N 49°09' W 123°02'0 0.0
2014-Oct-17 00:31N 49°09' W 123°02'0 0.0
2014-Oct-16 23:31N 49°09' W 123°02'0 0.0
2014-Oct-16 22:31N 49°09' W 123°02'0 0.0
2014-Oct-16 21:31N 49°09' W 123°02'0 0.0
2014-Oct-16 20:31N 49°09' W 123°02'0 0.0
2014-Oct-16 19:31N 49°09' W 123°02'0 0.0
2014-Oct-16 18:31N 49°09' W 123°02'0 0.0
2014-Oct-16 17:31N 49°09' W 123°02'0 0.0
2014-Oct-16 16:31N 49°09' W 123°02'0 0.0
2014-Oct-16 15:33N 49°09' W 123°02'0 0.0
2014-Oct-16 14:33N 49°09' W 123°02'6 5.8
2014-Oct-16 13:33N 49°07' W 123°11'7 7.0
2014-Oct-16 12:33N 49°06' W 123°21'9 9.5
2014-Oct-16 11:33N 49°10' W 123°35'10 9.8
2014-Oct-16 10:33N 49°13' W 123°49'5 5.4
2014-Oct-16 09:33N 49°10' W 123°56'0 0.0
2014-Oct-16 08:33N 49°10' W 123°56'5 4.9
2014-Oct-16 07:33N 49°13' W 123°50'10 9.8
2014-Oct-16 06:33N 49°10' W 123°36'1010.5
2014-Oct-16 05:33N 49°06' W 123°21'1110.6
2014-Oct-16 04:33N 49°07' W 123°05'2 1.9
2014-Oct-16 03:33N 49°09' W 123°02'0 0.0
2014-Oct-16 02:32N 49°09' W 123°02'0 0.0
2014-Oct-16 01:33N 49°09' W 123°02'0 0.0
2014-Oct-16 00:32N 49°09' W 123°02'0 0.0
2014-Oct-15 23:32N 49°09' W 123°02'0 0.0
2014-Oct-15 22:32N 49°09' W 123°02'0 0.0
2014-Oct-15 21:32N 49°09' W 123°02'0 0.0
2014-Oct-15 20:32N 49°09' W 123°02'0 0.0
2014-Oct-15 19:33N 49°09' W 123°02'0 0.0
2014-Oct-15 18:32N 49°09' W 123°02'0 0.0
2014-Oct-15 17:32N 49°09' W 123°02'0 0.0
2014-Oct-15 16:32N 49°09' W 123°02'0 0.0
2014-Oct-15 15:33N 49°09' W 123°02'0 0.0
2014-Oct-15 14:33N 49°09' W 123°02'6 5.7
2014-Oct-15 13:34N 49°07' W 123°10'8 7.6
2014-Oct-15 12:33N 49°06' W 123°22'9 9.4
2014-Oct-15 11:33N 49°10' W 123°36'10 9.7
2014-Oct-15 10:33N 49°13' W 123°50'5 4.9
2014-Oct-15 09:33N 49°10' W 123°56'0 0.0
2014-Oct-15 08:33N 49°10' W 123°56'6 5.7
2014-Oct-15 07:33N 49°13' W 123°49'1010.2
2014-Oct-15 06:33N 49°11' W 123°34'10 9.8
2014-Oct-15 05:33N 49°06' W 123°20'1010.0
2014-Oct-15 04:33N 49°07' W 123°05'2 2.5
2014-Oct-15 03:33N 49°09' W 123°02'0 0.0
2014-Oct-15 02:33N 49°09' W 123°02'0 0.0
2014-Oct-15 01:33N 49°09' W 123°02'0 0.0
2014-Oct-15 00:33N 49°09' W 123°02'0 0.0
2014-Oct-14 23:33N 49°09' W 123°02'0 0.0
2014-Oct-14 22:33N 49°09' W 123°02'0 0.0
2014-Oct-14 21:33N 49°09' W 123°02'0 0.0
2014-Oct-14 20:33N 49°09' W 123°02'0 0.0
2014-Oct-14 19:30N 49°09' W 123°02'0 0.0
2014-Oct-14 18:30N 49°09' W 123°02'0 0.0
2014-Oct-14 17:33N 49°09' W 123°02'0 0.0
2014-Oct-14 16:33N 49°09' W 123°02'0 0.0
2014-Oct-14 15:33N 49°09' W 123°02'0 0.0
2014-Oct-14 14:33N 49°09' W 123°02'0 0.0
2014-Oct-14 13:33N 49°09' W 123°02'0 0.0
2014-Oct-14 12:33N 49°09' W 123°02'0 0.0
2014-Oct-14 11:33N 49°09' W 123°02'0 0.0
2014-Oct-14 10:33N 49°09' W 123°02'0 0.0
2014-Oct-14 09:30N 49°09' W 123°02'0 0.0
2014-Oct-14 08:33N 49°09' W 123°02'0 0.0
2014-Oct-14 07:33N 49°09' W 123°02'0 0.0
2014-Oct-14 06:33N 49°09' W 123°02'0 0.0
2014-Oct-14 05:33N 49°09' W 123°02'0 0.0
2014-Oct-14 04:33N 49°09' W 123°02'0 0.0
2014-Oct-14 03:33N 49°09' W 123°02'0 0.0
2014-Oct-14 02:33N 49°09' W 123°02'0 0.0
2014-Oct-14 01:33N 49°09' W 123°02'0 0.0
2014-Oct-14 00:33N 49°09' W 123°02'0 0.0
2014-Oct-13 23:33N 49°09' W 123°02'0 0.0
2014-Oct-13 22:33N 49°09' W 123°02'0 0.0
2014-Oct-13 21:33N 49°09' W 123°02'0 0.0
2014-Oct-13 20:33N 49°09' W 123°02'0 0.0
2014-Oct-13 19:33N 49°09' W 123°02'0 0.0
2014-Oct-13 18:33N 49°09' W 123°02'0 0.0
2014-Oct-13 17:33N 49°09' W 123°02'0 0.0
2014-Oct-13 16:30N 49°09' W 123°02'0 0.0
2014-Oct-13 15:33N 49°09' W 123°02'0 0.0
2014-Oct-13 14:33N 49°09' W 123°02'0 0.0
2014-Oct-13 13:33N 49°09' W 123°02'0 0.0
2014-Oct-13 12:33N 49°09' W 123°02'0 0.0
2014-Oct-13 11:33N 49°09' W 123°02'0 0.0
2014-Oct-13 10:33N 49°09' W 123°02'0 0.0
2014-Oct-13 09:33N 49°09' W 123°02'0 0.0
2014-Oct-13 08:33N 49°09' W 123°02'0 0.0
2014-Oct-13 07:33N 49°09' W 123°02'0 0.0
2014-Oct-13 06:33N 49°09' W 123°02'0 0.0
2014-Oct-13 05:33N 49°09' W 123°02'0 0.0
2014-Oct-13 04:30N 49°09' W 123°02'0 0.0
2014-Oct-13 03:33N 49°09' W 123°02'0 0.0
2014-Oct-13 02:33N 49°09' W 123°02'0 0.0
2014-Oct-13 01:33N 49°09' W 123°02'0 0.0
2014-Oct-13 00:33N 49°09' W 123°02'0 0.0
2014-Oct-12 23:33N 49°09' W 123°02'0 0.0
2014-Oct-12 22:33N 49°09' W 123°02'  
Track history (hours):
 
Tides and Currents Weather Stations Pressure Air Temp Water Temp Dewpoint Dewpoint Depression Visibility Wind Speed Wind Dir Waves Ship Positions

Arctic Taglu

Last reported at 2014-Oct-22 21:33 UTC. Time now 2014-Oct-22 21:53 UTC.
Position N 49°09' W 123°02'.

Length 33 m; draft 6 m.

Type: Tug. MMSI: 316003483.

Date/timePositionNaut miles runAvg speedWind from/ knotsBaromVisibWave heightAir tempDewpointWater temp
2014-Oct-22 21:33N 49°09' W 123°02'0 0.0
2014-Oct-22 20:33N 49°09' W 123°02'0 0.0
2014-Oct-22 19:33N 49°09' W 123°02'0 0.0
2014-Oct-22 18:33N 49°09' W 123°02'0 0.0
2014-Oct-22 17:33N 49°09' W 123°02'0 0.0
2014-Oct-22 16:33N 49°09' W 123°02'0 0.0
2014-Oct-22 15:33N 49°09' W 123°02'0 0.0
2014-Oct-22 14:33N 49°09' W 123°02'4 4.3
2014-Oct-22 13:33N 49°06' W 123°08'9 8.7
2014-Oct-22 12:33N 49°07' W 123°21'9 9.4
2014-Oct-22 11:33N 49°10' W 123°35'8 8.1
2014-Oct-22 10:33N 49°13' W 123°46'7 6.8
2014-Oct-22 09:33N 49°10' W 123°56'0 0.0
2014-Oct-22 08:33N 49°10' W 123°56'4 3.6
2014-Oct-22 07:33N 49°13' W 123°52'9 9.1
2014-Oct-22 06:33N 49°11' W 123°38'10 9.8
2014-Oct-22 05:33N 49°07' W 123°25'1211.7
2014-Oct-22 04:33N 49°07' W 123°07'4 3.6
2014-Oct-22 03:33N 49°09' W 123°02'0 0.0
2014-Oct-22 02:33N 49°09' W 123°02'0 0.1
2014-Oct-22 01:33N 49°09' W 123°02'0 0.0
2014-Oct-22 00:33N 49°09' W 123°02'0 0.0
2014-Oct-21 23:33N 49°09' W 123°02'0 0.0
2014-Oct-21 22:33N 49°09' W 123°02'0 0.0
2014-Oct-21 21:33N 49°09' W 123°02'0 0.0
2014-Oct-21 20:33N 49°09' W 123°02'0 0.0
2014-Oct-21 19:33N 49°09' W 123°02'0 0.0
2014-Oct-21 18:33N 49°09' W 123°02'0 0.0
2014-Oct-21 17:33N 49°09' W 123°02'0 0.0
2014-Oct-21 16:33N 49°09' W 123°02'0 0.0
2014-Oct-21 15:33N 49°09' W 123°02'0 0.0
2014-Oct-21 14:33N 49°09' W 123°02'4 4.3
2014-Oct-21 13:33N 49°07' W 123°08'8 8.5
2014-Oct-21 12:33N 49°06' W 123°21'10 9.8
2014-Oct-21 11:33N 49°10' W 123°35'10 9.8
2014-Oct-21 10:33N 49°13' W 123°49'5 5.3
2014-Oct-21 09:33N 49°10' W 123°56'0 0.0
2014-Oct-21 08:33N 49°10' W 123°56'3 3.1
2014-Oct-21 07:33N 49°12' W 123°53'10 9.8
2014-Oct-21 06:33N 49°10' W 123°38'10 9.9
2014-Oct-21 05:33N 49°06' W 123°24'1211.6
2014-Oct-21 04:33N 49°07' W 123°06'3 3.1
2014-Oct-21 03:33N 49°09' W 123°02'0 0.0
2014-Oct-21 02:33N 49°09' W 123°02'0 0.1
2014-Oct-21 01:31N 49°09' W 123°02'0 0.0
2014-Oct-21 00:31N 49°09' W 123°02'0 0.0
2014-Oct-20 23:31N 49°09' W 123°02'0 0.0
2014-Oct-20 22:31N 49°09' W 123°02'0 0.0
2014-Oct-20 21:31N 49°09' W 123°02'0 0.0
2014-Oct-20 20:31N 49°09' W 123°02'0 0.0
2014-Oct-20 19:31N 49°09' W 123°02'0 0.0
2014-Oct-20 18:31N 49°09' W 123°02'0 0.0
2014-Oct-20 17:31N 49°09' W 123°02'0 0.0
2014-Oct-20 16:31N 49°09' W 123°02'0 0.0
2014-Oct-20 15:31N 49°09' W 123°02'0 0.0
2014-Oct-20 14:31N 49°09' W 123°02'0 0.0
2014-Oct-20 13:31N 49°09' W 123°02'0 0.0
2014-Oct-20 12:31N 49°09' W 123°02'0 0.0
2014-Oct-20 11:31N 49°09' W 123°02'0 0.0
2014-Oct-20 10:31N 49°09' W 123°02'0 0.0
2014-Oct-20 09:31N 49°09' W 123°02'0 0.0
2014-Oct-20 08:31N 49°09' W 123°02'0 0.0
2014-Oct-20 07:31N 49°09' W 123°02'0 0.0
2014-Oct-20 06:31N 49°09' W 123°02'0 0.0
2014-Oct-20 05:31N 49°09' W 123°02'0 0.0
2014-Oct-20 04:31N 49°09' W 123°02'0 0.0
2014-Oct-20 03:31N 49°09' W 123°02'0 0.0
2014-Oct-20 02:31N 49°09' W 123°02'0 0.0
2014-Oct-20 01:31N 49°09' W 123°02'0 0.0
2014-Oct-20 00:31N 49°09' W 123°02'0 0.0
2014-Oct-19 23:28N 49°09' W 123°02'0 0.0
2014-Oct-19 22:31N 49°09' W 123°02'0 0.0
2014-Oct-19 21:31N 49°09' W 123°02'0 0.0
2014-Oct-19 20:31N 49°09' W 123°02'0 0.0
2014-Oct-19 19:31N 49°09' W 123°02'0 0.0
2014-Oct-19 18:31N 49°09' W 123°02'0 0.0
2014-Oct-19 17:31N 49°09' W 123°02'0 0.0
2014-Oct-19 16:31N 49°09' W 123°02'0 0.0
2014-Oct-19 15:31N 49°09' W 123°02'0 0.0
2014-Oct-19 14:31N 49°09' W 123°02'0 0.0
2014-Oct-19 13:31N 49°09' W 123°02'0 0.0
2014-Oct-19 12:31N 49°09' W 123°02'0 0.0
2014-Oct-19 11:31N 49°09' W 123°02'0 0.0
2014-Oct-19 10:28N 49°09' W 123°02'0 0.0
2014-Oct-19 09:31N 49°09' W 123°02'0 0.0
2014-Oct-19 08:31N 49°09' W 123°02'0 0.0
2014-Oct-19 07:31N 49°09' W 123°02'0 0.0
2014-Oct-19 06:31N 49°09' W 123°02'0 0.0
2014-Oct-19 05:31N 49°09' W 123°02'0 0.0
2014-Oct-19 04:31N 49°09' W 123°02'0 0.0
2014-Oct-19 03:31N 49°09' W 123°02'0 0.0
2014-Oct-19 02:31N 49°09' W 123°02'0 0.0
2014-Oct-19 01:31N 49°09' W 123°02'0 0.0
2014-Oct-19 00:31N 49°09' W 123°02'0 0.0
2014-Oct-18 23:31N 49°09' W 123°02'0 0.0
2014-Oct-18 22:31N 49°09' W 123°02'0 0.0
2014-Oct-18 21:31N 49°09' W 123°02'0 0.0
2014-Oct-18 20:31N 49°09' W 123°02'0 0.0
2014-Oct-18 19:31N 49°09' W 123°02'0 0.0
2014-Oct-18 18:31N 49°09' W 123°02'0 0.0
2014-Oct-18 17:31N 49°09' W 123°02'0 0.0
2014-Oct-18 16:31N 49°09' W 123°02'0 0.0
2014-Oct-18 15:31N 49°09' W 123°02'0 0.0
2014-Oct-18 14:33N 49°09' W 123°02'6 6.0
2014-Oct-18 13:34N 49°07' W 123°11'7 6.6
2014-Oct-18 12:33N 49°06' W 123°21'10 9.5
2014-Oct-18 11:33N 49°10' W 123°35'10 9.8
2014-Oct-18 10:34N 49°13' W 123°49'5 4.3
2014-Oct-18 09:18N 49°10' W 123°56'0 0.0
2014-Oct-18 08:32N 49°10' W 123°56'4 4.2
2014-Oct-18 07:32N 49°13' W 123°51'10 9.9
2014-Oct-18 06:34N 49°11' W 123°37'1110.5
2014-Oct-18 05:33N 49°07' W 123°22'1110.8
2014-Oct-18 04:33N 49°07' W 123°05'2 2.5
2014-Oct-18 03:34N 49°09' W 123°02'0 0.0
2014-Oct-18 02:32N 49°09' W 123°02'0 0.0
2014-Oct-18 01:32N 49°09' W 123°02'0 0.0
2014-Oct-18 00:30N 49°09' W 123°02'0 0.0
2014-Oct-17 23:33N 49°09' W 123°02'0 0.0
2014-Oct-17 22:32N 49°09' W 123°02'0 0.0
2014-Oct-17 21:32N 49°09' W 123°02'0 0.0
2014-Oct-17 20:32N 49°09' W 123°02'0 0.0
2014-Oct-17 19:33N 49°09' W 123°02'0 0.0
2014-Oct-17 18:32N 49°09' W 123°02'0 0.0
2014-Oct-17 17:32N 49°09' W 123°02'0 0.0
2014-Oct-17 16:32N 49°09' W 123°02'0 0.0
2014-Oct-17 15:33N 49°09' W 123°02'0 0.0
2014-Oct-17 14:33N 49°09' W 123°02'4 4.5
2014-Oct-17 13:33N 49°07' W 123°08'7 6.6
2014-Oct-17 12:33N 49°06' W 123°18'10 9.7
2014-Oct-17 11:33N 49°09' W 123°32'1010.1
2014-Oct-17 10:33N 49°13' W 123°47'6 6.3
2014-Oct-17 09:33N 49°10' W 123°56'0 0.0
2014-Oct-17 08:33N 49°10' W 123°56'5 5.3
2014-Oct-17 07:33N 49°13' W 123°49'10 9.7
2014-Oct-17 06:33N 49°10' W 123°35'1010.5
2014-Oct-17 05:33N 49°06' W 123°20'1110.6
2014-Oct-17 04:33N 49°07' W 123°04'2 1.8
2014-Oct-17 03:33N 49°09' W 123°02'0 0.0
2014-Oct-17 02:31N 49°09' W 123°02'0 0.0
2014-Oct-17 01:31N 49°09' W 123°02'0 0.0
2014-Oct-17 00:31N 49°09' W 123°02'0 0.0
2014-Oct-16 23:31N 49°09' W 123°02'0 0.0
2014-Oct-16 22:31N 49°09' W 123°02'0 0.0
2014-Oct-16 21:31N 49°09' W 123°02'0 0.0
2014-Oct-16 20:31N 49°09' W 123°02'0 0.0
2014-Oct-16 19:31N 49°09' W 123°02'0 0.0
2014-Oct-16 18:31N 49°09' W 123°02'0 0.0
2014-Oct-16 17:31N 49°09' W 123°02'0 0.0
2014-Oct-16 16:31N 49°09' W 123°02'0 0.0
2014-Oct-16 15:33N 49°09' W 123°02'0 0.0
2014-Oct-16 14:33N 49°09' W 123°02'6 5.8
2014-Oct-16 13:33N 49°07' W 123°11'7 7.0
2014-Oct-16 12:33N 49°06' W 123°21'9 9.5
2014-Oct-16 11:33N 49°10' W 123°35'10 9.8
2014-Oct-16 10:33N 49°13' W 123°49'5 5.4
2014-Oct-16 09:33N 49°10' W 123°56'0 0.0
2014-Oct-16 08:33N 49°10' W 123°56'5 4.9
2014-Oct-16 07:33N 49°13' W 123°50'10 9.8
2014-Oct-16 06:33N 49°10' W 123°36'1010.5
2014-Oct-16 05:33N 49°06' W 123°21'1110.6
2014-Oct-16 04:33N 49°07' W 123°05'2 1.9
2014-Oct-16 03:33N 49°09' W 123°02'0 0.0
2014-Oct-16 02:32N 49°09' W 123°02'0 0.0
2014-Oct-16 01:33N 49°09' W 123°02'0 0.0
2014-Oct-16 00:32N 49°09' W 123°02'0 0.0
2014-Oct-15 23:32N 49°09' W 123°02'0 0.0
2014-Oct-15 22:32N 49°09' W 123°02'0 0.0
2014-Oct-15 21:32N 49°09' W 123°02'0 0.0
2014-Oct-15 20:32N 49°09' W 123°02'0 0.0
2014-Oct-15 19:33N 49°09' W 123°02'0 0.0
2014-Oct-15 18:32N 49°09' W 123°02'0 0.0
2014-Oct-15 17:32N 49°09' W 123°02'0 0.0
2014-Oct-15 16:32N 49°09' W 123°02'0 0.0
2014-Oct-15 15:33N 49°09' W 123°02'0 0.0
2014-Oct-15 14:33N 49°09' W 123°02'6 5.7
2014-Oct-15 13:34N 49°07' W 123°10'8 7.6
2014-Oct-15 12:33N 49°06' W 123°22'9 9.4
2014-Oct-15 11:33N 49°10' W 123°36'10 9.7
2014-Oct-15 10:33N 49°13' W 123°50'5 4.9
2014-Oct-15 09:33N 49°10' W 123°56'0 0.0
2014-Oct-15 08:33N 49°10' W 123°56'6 5.7
2014-Oct-15 07:33N 49°13' W 123°49'1010.2
2014-Oct-15 06:33N 49°11' W 123°34'10 9.8
2014-Oct-15 05:33N 49°06' W 123°20'1010.0
2014-Oct-15 04:33N 49°07' W 123°05'2 2.5
2014-Oct-15 03:33N 49°09' W 123°02'0 0.0
2014-Oct-15 02:33N 49°09' W 123°02'0 0.0
2014-Oct-15 01:33N 49°09' W 123°02'0 0.0
2014-Oct-15 00:33N 49°09' W 123°02'0 0.0
2014-Oct-14 23:33N 49°09' W 123°02'0 0.0
2014-Oct-14 22:33N 49°09' W 123°02'0 0.0
2014-Oct-14 21:33N 49°09' W 123°02'0 0.0
2014-Oct-14 20:33N 49°09' W 123°02'0 0.0
2014-Oct-14 19:30N 49°09' W 123°02'0 0.0
2014-Oct-14 18:30N 49°09' W 123°02'0 0.0
2014-Oct-14 17:33N 49°09' W 123°02'0 0.0
2014-Oct-14 16:33N 49°09' W 123°02'0 0.0
2014-Oct-14 15:33N 49°09' W 123°02'0 0.0
2014-Oct-14 14:33N 49°09' W 123°02'0 0.0
2014-Oct-14 13:33N 49°09' W 123°02'0 0.0
2014-Oct-14 12:33N 49°09' W 123°02'0 0.0
2014-Oct-14 11:33N 49°09' W 123°02'0 0.0
2014-Oct-14 10:33N 49°09' W 123°02'0 0.0
2014-Oct-14 09:30N 49°09' W 123°02'0 0.0
2014-Oct-14 08:33N 49°09' W 123°02'0 0.0
2014-Oct-14 07:33N 49°09' W 123°02'0 0.0
2014-Oct-14 06:33N 49°09' W 123°02'0 0.0
2014-Oct-14 05:33N 49°09' W 123°02'0 0.0
2014-Oct-14 04:33N 49°09' W 123°02'0 0.0
2014-Oct-14 03:33N 49°09' W 123°02'0 0.0
2014-Oct-14 02:33N 49°09' W 123°02'0 0.0
2014-Oct-14 01:33N 49°09' W 123°02'0 0.0
2014-Oct-14 00:33N 49°09' W 123°02'0 0.0
2014-Oct-13 23:33N 49°09' W 123°02'0 0.0
2014-Oct-13 22:33N 49°09' W 123°02'0 0.0
2014-Oct-13 21:33N 49°09' W 123°02'0 0.0
2014-Oct-13 20:33N 49°09' W 123°02'0 0.0
2014-Oct-13 19:33N 49°09' W 123°02'0 0.0
2014-Oct-13 18:33N 49°09' W 123°02'0 0.0
2014-Oct-13 17:33N 49°09' W 123°02'0 0.0
2014-Oct-13 16:30N 49°09' W 123°02'0 0.0
2014-Oct-13 15:33N 49°09' W 123°02'0 0.0
2014-Oct-13 14:33N 49°09' W 123°02'0 0.0
2014-Oct-13 13:33N 49°09' W 123°02'0 0.0
2014-Oct-13 12:33N 49°09' W 123°02'0 0.0
2014-Oct-13 11:33N 49°09' W 123°02'0 0.0
2014-Oct-13 10:33N 49°09' W 123°02'0 0.0
2014-Oct-13 09:33N 49°09' W 123°02'0 0.0
2014-Oct-13 08:33N 49°09' W 123°02'0 0.0
2014-Oct-13 07:33N 49°09' W 123°02'0 0.0
2014-Oct-13 06:33N 49°09' W 123°02'0 0.0
2014-Oct-13 05:33N 49°09' W 123°02'0 0.0
2014-Oct-13 04:30N 49°09' W 123°02'0 0.0
2014-Oct-13 03:33N 49°09' W 123°02'0 0.0
2014-Oct-13 02:33N 49°09' W 123°02'0 0.0
2014-Oct-13 01:33N 49°09' W 123°02'0 0.0
2014-Oct-13 00:33N 49°09' W 123°02'0 0.0
2014-Oct-12 23:33N 49°09' W 123°02'0 0.0
2014-Oct-12 22:33N 49°09' W 123°02'  

Dump ship's entire track history